Time;durP1;ratioP1;P1;durP2;ratioP2;P2;SDS_P1;SDS_P2;PMS_P1;PMS_P2;Temp;Humidity;BMP_temperature;BMP_pressure;BME280_temperature;BME280_humidity;BME280_pressure;Samples;Min_cycle;Max_cycle;Signal;HPM_P1;HPM_P2
2023/07/03 00:00:17;;;;;;;16.58;10.65;;;;;;;;;;5045549;28;20252;-63
2023/07/03 00:02:51;;;;;;;19.10;11.30;;;;;;;;;;5052836;28;20244;-64
2023/07/03 00:05:19;;;;;;;22.40;11.82;;;;;;;;;;5046279;28;20700;-64
2023/07/03 00:07:46;;;;;;;19.35;11.35;;;;;;;;;;5048405;28;20705;-64
2023/07/03 00:10:14;;;;;;;17.60;11.68;;;;;;;;;;5051883;28;20202;-63
2023/07/03 00:12:42;;;;;;;20.85;11.85;;;;;;;;;;5032105;28;20201;-63
2023/07/03 00:15:10;;;;;;;19.90;11.57;;;;;;;;;;5047056;28;20233;-63
2023/07/03 00:17:37;;;;;;;20.65;12.32;;;;;;;;;;5048503;28;20656;-63
2023/07/03 00:20:05;;;;;;;18.95;11.77;;;;;;;;;;5035832;28;20251;-63
2023/07/03 00:22:33;;;;;;;21.52;11.85;;;;;;;;;;5048076;28;20696;-62
2023/07/03 00:25:00;;;;;;;19.40;11.45;;;;;;;;;;5042057;28;20249;-63
2023/07/03 00:27:27;;;;;;;20.73;12.13;;;;;;;;;;5032051;28;20221;-62
2023/07/03 00:29:55;;;;;;;21.20;12.20;;;;;;;;;;5049705;28;20248;-63
2023/07/03 00:32:22;;;;;;;21.27;12.18;;;;;;;;;;5033871;28;20202;-61
2023/07/03 00:34:50;;;;;;;20.55;12.55;;;;;;;;;;5046786;28;20222;-66
2023/07/03 00:37:17;;;;;;;20.67;11.80;;;;;;;;;;5026431;28;20265;-63
2023/07/03 00:39:45;;;;;;;19.83;12.13;;;;;;;;;;5046778;28;20604;-62
2023/07/03 00:42:12;;;;;;;20.92;12.48;;;;;;;;;;5049471;28;20218;-64
2023/07/03 00:44:39;;;;;;;17.63;11.13;;;;;;;;;;5044804;28;21239;-68
2023/07/03 00:47:09;;;;;;;20.55;11.85;;;;;;;;;;5044274;28;20304;-62
2023/07/03 00:49:36;;;;;;;19.33;11.20;;;;;;;;;;5047223;28;20198;-69
2023/07/03 00:52:04;;;;;;;20.27;12.45;;;;;;;;;;5046333;28;20237;-62
2023/07/03 00:54:31;;;;;;;16.85;11.07;;;;;;;;;;5035326;28;20235;-65
2023/07/03 00:56:58;;;;;;;19.40;12.90;;;;;;;;;;5031054;28;20206;-62
2023/07/03 00:59:26;;;;;;;16.08;11.45;;;;;;;;;;5046561;28;20251;-64
2023/07/03 01:02:00;;;;;;;18.35;11.35;;;;;;;;;;5047218;28;20703;-62
2023/07/03 01:04:30;;;;;;;20.08;12.73;;;;;;;;;;5033260;28;20267;-65
2023/07/03 01:07:02;;;;;;;17.20;11.68;;;;;;;;;;5045263;28;20214;-62
2023/07/03 01:09:33;;;;;;;20.92;11.55;;;;;;;;;;5011207;28;20222;-65
2023/07/03 01:12:01;;;;;;;18.45;11.35;;;;;;;;;;5045670;28;20202;-64
2023/07/03 01:14:29;;;;;;;22.33;12.20;;;;;;;;;;5050242;28;20225;-62
2023/07/03 01:16:58;;;;;;;19.05;11.77;;;;;;;;;;5047651;28;20212;-66
2023/07/03 01:19:31;;;;;;;21.17;12.40;;;;;;;;;;5049425;28;20202;-65
2023/07/03 01:22:02;;;;;;;18.00;12.10;;;;;;;;;;5031661;28;20250;-62
2023/07/03 01:24:36;;;;;;;18.10;10.98;;;;;;;;;;5047884;28;20229;-62
2023/07/03 01:27:05;;;;;;;19.15;11.55;;;;;;;;;;5042509;28;20267;-63
2023/07/03 01:29:33;;;;;;;21.30;12.77;;;;;;;;;;5047832;28;20256;-62
2023/07/03 01:32:00;;;;;;;21.27;12.20;;;;;;;;;;5045139;28;20209;-66
2023/07/03 01:34:28;;;;;;;17.60;11.55;;;;;;;;;;5044706;28;20222;-64
2023/07/03 01:36:59;;;;;;;21.77;11.38;;;;;;;;;;5048089;28;20668;-62
2023/07/03 01:39:26;;;;;;;17.67;11.18;;;;;;;;;;5038525;28;20238;-67
2023/07/03 01:41:54;;;;;;;18.02;12.13;;;;;;;;;;5028286;28;20198;-64
2023/07/03 01:44:22;;;;;;;17.27;11.25;;;;;;;;;;5040246;28;20229;-65
2023/07/03 01:46:49;;;;;;;20.15;11.77;;;;;;;;;;5041700;28;20226;-61
2023/07/03 01:49:17;;;;;;;16.55;11.25;;;;;;;;;;5039573;28;20249;-61
2023/07/03 01:52:17;;;;;;;20.35;11.93;;;;;;;;;;5027322;28;20226;-64
2023/07/03 01:54:47;;;;;;;18.42;11.10;;;;;;;;;;5014362;28;20596;-61
2023/07/03 01:57:28;;;;;;;19.80;11.90;;;;;;;;;;5040616;28;20272;-64
2023/07/03 01:59:56;;;;;;;19.20;10.95;;;;;;;;;;5037315;28;20263;-64
2023/07/03 02:02:28;;;;;;;20.05;12.07;;;;;;;;;;5037579;28;22056;-64
2023/07/03 02:04:59;;;;;;;20.67;11.47;;;;;;;;;;5038682;28;20230;-63
2023/07/03 02:07:29;;;;;;;19.75;11.43;;;;;;;;;;5039161;28;20213;-62
2023/07/03 02:09:56;;;;;;;19.02;12.07;;;;;;;;;;5043964;28;20207;-69
2023/07/03 02:12:24;;;;;;;18.15;11.50;;;;;;;;;;5041955;28;20210;-62
2023/07/03 02:14:51;;;;;;;17.90;11.65;;;;;;;;;;5024236;28;20229;-65
2023/07/03 02:17:18;;;;;;;20.15;11.70;;;;;;;;;;5041365;28;20215;-65
2023/07/03 02:19:46;;;;;;;20.02;11.63;;;;;;;;;;5041795;28;20203;-68
2023/07/03 02:22:13;;;;;;;19.52;11.93;;;;;;;;;;5044644;28;20718;-68
2023/07/03 02:24:40;;;;;;;18.53;11.30;;;;;;;;;;5038482;28;20295;-66
2023/07/03 02:27:08;;;;;;;19.93;11.30;;;;;;;;;;5048808;28;20218;-61
2023/07/03 02:29:35;;;;;;;21.33;12.00;;;;;;;;;;5040349;28;20202;-62
2023/07/03 02:32:08;;;;;;;21.87;11.57;;;;;;;;;;5046358;28;20198;-64
2023/07/03 02:34:36;;;;;;;18.23;11.18;;;;;;;;;;5043344;28;20221;-61
2023/07/03 02:37:04;;;;;;;18.63;11.10;;;;;;;;;;5044941;28;20663;-62
2023/07/03 02:39:32;;;;;;;18.43;11.00;;;;;;;;;;5045066;28;20729;-64
2023/07/03 02:41:59;;;;;;;17.45;10.77;;;;;;;;;;5028906;28;20291;-61
2023/07/03 02:44:26;;;;;;;17.60;10.95;;;;;;;;;;5049401;28;20225;-70
2023/07/03 02:46:54;;;;;;;22.63;11.33;;;;;;;;;;5045270;28;20217;-62
2023/07/03 02:49:21;;;;;;;18.15;11.23;;;;;;;;;;5036839;28;20289;-67
2023/07/03 02:51:48;;;;;;;17.63;10.67;;;;;;;;;;5044674;28;20194;-64
2023/07/03 02:54:16;;;;;;;18.55;11.30;;;;;;;;;;5035998;28;20631;-65
2023/07/03 02:56:43;;;;;;;20.63;10.73;;;;;;;;;;5047457;28;20210;-63
2023/07/03 02:59:14;;;;;;;17.55;10.68;;;;;;;;;;5047476;28;20213;-66
2023/07/03 03:01:41;;;;;;;20.52;11.45;;;;;;;;;;5048313;28;20264;-63
2023/07/03 03:04:08;;;;;;;22.15;11.73;;;;;;;;;;5027175;28;20307;-62
2023/07/03 03:06:37;;;;;;;23.25;10.73;;;;;;;;;;5031003;28;20222;-67
2023/07/03 03:09:05;;;;;;;19.23;10.45;;;;;;;;;;5047911;28;20202;-62
2023/07/03 03:11:32;;;;;;;20.33;11.13;;;;;;;;;;5049974;28;20202;-62
2023/07/03 03:13:59;;;;;;;17.52;10.70;;;;;;;;;;5027658;28;20226;-64
2023/07/03 03:16:27;;;;;;;19.08;10.43;;;;;;;;;;5048702;28;20198;-66
2023/07/03 03:18:54;;;;;;;17.77;10.82;;;;;;;;;;5045839;28;20209;-62
2023/07/03 03:21:21;;;;;;;16.25;10.05;;;;;;;;;;5048501;28;20680;-67
2023/07/03 03:23:49;;;;;;;18.95;10.00;;;;;;;;;;5045546;28;20230;-63
2023/07/03 03:26:19;;;;;;;15.07;9.88;;;;;;;;;;5046888;28;20294;-67
2023/07/03 03:28:46;;;;;;;17.08;10.70;;;;;;;;;;5039486;28;20209;-66
2023/07/03 03:31:13;;;;;;;18.05;10.85;;;;;;;;;;5024525;28;20202;-62
2023/07/03 03:33:41;;;;;;;21.70;9.90;;;;;;;;;;5041436;28;20665;-63
2023/07/03 03:36:08;;;;;;;18.80;10.13;;;;;;;;;;5025126;28;20210;-61
2023/07/03 03:38:35;;;;;;;18.35;10.23;;;;;;;;;;5048332;28;20203;-62
2023/07/03 03:41:05;;;;;;;16.13;10.10;;;;;;;;;;5028514;28;20267;-64
2023/07/03 03:43:32;;;;;;;17.08;9.90;;;;;;;;;;5039222;28;20211;-67
2023/07/03 03:46:01;;;;;;;20.02;9.70;;;;;;;;;;5047525;28;20289;-61
2023/07/03 03:48:30;;;;;;;18.05;9.65;;;;;;;;;;5041008;28;20226;-62
2023/07/03 03:51:00;;;;;;;19.67;9.98;;;;;;;;;;5042642;28;20202;-62
2023/07/03 03:53:27;;;;;;;18.15;9.88;;;;;;;;;;5036803;28;20206;-62
2023/07/03 03:55:55;;;;;;;16.45;9.68;;;;;;;;;;5048826;28;20202;-62
2023/07/03 03:58:23;;;;;;;15.77;9.32;;;;;;;;;;5048857;28;20210;-62
2023/07/03 04:00:53;;;;;;;16.98;9.90;;;;;;;;;;5042088;28;20766;-61
2023/07/03 04:03:21;;;;;;;17.17;10.30;;;;;;;;;;5022932;28;20752;-61
2023/07/03 04:05:48;;;;;;;16.58;9.00;;;;;;;;;;5038559;28;20244;-63
2023/07/03 04:08:16;;;;;;;15.25;9.63;;;;;;;;;;5035504;28;21069;-64
2023/07/03 04:10:43;;;;;;;16.08;10.68;;;;;;;;;;5040529;28;20202;-61
2023/07/03 04:13:11;;;;;;;14.70;9.32;;;;;;;;;;5018427;28;20702;-65
2023/07/03 04:15:51;;;;;;;17.15;10.23;;;;;;;;;;5034885;28;20222;-63
2023/07/03 04:18:19;;;;;;;17.13;9.55;;;;;;;;;;5019762;28;20669;-66
2023/07/03 04:20:48;;;;;;;17.38;10.43;;;;;;;;;;5030364;28;20242;-66
2023/07/03 04:23:16;;;;;;;16.27;10.05;;;;;;;;;;5035936;28;20210;-65
2023/07/03 04:25:44;;;;;;;15.70;10.35;;;;;;;;;;5021324;28;20261;-64
2023/07/03 04:28:12;;;;;;;17.55;9.65;;;;;;;;;;5032022;28;20234;-63
2023/07/03 04:30:39;;;;;;;16.67;9.48;;;;;;;;;;5046332;28;20737;-63
2023/07/03 04:33:07;;;;;;;16.02;10.07;;;;;;;;;;5043760;28;20199;-60
2023/07/03 04:35:34;;;;;;;15.50;10.55;;;;;;;;;;5035246;28;20712;-62
2023/07/03 04:38:02;;;;;;;17.42;9.60;;;;;;;;;;5047852;28;20210;-61
2023/07/03 04:40:29;;;;;;;16.60;9.85;;;;;;;;;;5049663;28;20210;-65
2023/07/03 04:42:57;;;;;;;19.52;10.77;;;;;;;;;;5028595;28;20202;-60
2023/07/03 04:45:26;;;;;;;17.30;9.82;;;;;;;;;;5036938;28;20723;-67
2023/07/03 04:47:53;;;;;;;16.95;9.70;;;;;;;;;;5035283;28;20431;-60
2023/07/03 04:50:24;;;;;;;18.55;9.60;;;;;;;;;;5045630;28;20194;-63
2023/07/03 04:52:53;;;;;;;15.02;8.85;;;;;;;;;;5046835;28;20257;-63
2023/07/03 04:55:24;;;;;;;19.10;9.90;;;;;;;;;;5049149;28;20712;-62
2023/07/03 04:57:52;;;;;;;16.98;9.73;;;;;;;;;;5038233;28;20655;-61
2023/07/03 05:00:20;;;;;;;12.93;8.88;;;;;;;;;;5046593;28;20261;-63
2023/07/03 05:02:48;;;;;;;15.68;9.20;;;;;;;;;;5045554;28;20213;-63
2023/07/03 05:05:16;;;;;;;18.00;9.90;;;;;;;;;;5048732;28;20604;-62
2023/07/03 05:07:45;;;;;;;17.20;9.48;;;;;;;;;;5048138;28;20237;-63
2023/07/03 05:10:13;;;;;;;22.25;9.68;;;;;;;;;;5040447;28;20217;-63
2023/07/03 05:12:41;;;;;;;14.45;8.70;;;;;;;;;;5026024;28;20892;-63
2023/07/03 05:15:09;;;;;;;14.73;9.32;;;;;;;;;;5028853;28;20222;-63
2023/07/03 05:17:38;;;;;;;16.92;8.90;;;;;;;;;;5025720;28;20289;-63
2023/07/03 05:20:10;;;;;;;15.00;8.60;;;;;;;;;;5030600;28;20687;-65
2023/07/03 05:22:38;;;;;;;15.13;8.82;;;;;;;;;;5036640;28;20233;-63
2023/07/03 05:25:06;;;;;;;18.08;8.65;;;;;;;;;;5040135;28;20270;-62
2023/07/03 05:27:33;;;;;;;15.90;9.00;;;;;;;;;;5038792;28;20223;-62
2023/07/03 05:30:01;;;;;;;17.90;9.07;;;;;;;;;;5043089;28;20275;-63
2023/07/03 05:32:28;;;;;;;15.10;8.63;;;;;;;;;;5022556;28;20198;-64
2023/07/03 05:34:56;;;;;;;16.58;9.07;;;;;;;;;;5041712;28;20799;-63
2023/07/03 05:37:23;;;;;;;14.45;8.35;;;;;;;;;;5040809;28;20297;-63
2023/07/03 05:39:51;;;;;;;14.35;7.85;;;;;;;;;;5044296;28;20268;-63
2023/07/03 05:42:18;;;;;;;15.18;8.38;;;;;;;;;;5042410;28;20211;-63
2023/07/03 05:44:46;;;;;;;15.10;8.75;;;;;;;;;;5039096;28;20720;-64
2023/07/03 05:47:14;;;;;;;15.20;8.02;;;;;;;;;;5019008;28;20222;-64
2023/07/03 05:49:42;;;;;;;12.25;7.93;;;;;;;;;;5026385;28;20306;-65
2023/07/03 05:52:10;;;;;;;14.68;8.30;;;;;;;;;;5037632;28;20198;-63
2023/07/03 05:54:38;;;;;;;16.70;8.68;;;;;;;;;;5038933;28;20525;-64
2023/07/03 05:57:07;;;;;;;14.50;8.98;;;;;;;;;;5038166;28;20574;-63
2023/07/03 05:59:35;;;;;;;14.02;8.60;;;;;;;;;;5036418;28;20203;-64
2023/07/03 06:02:04;;;;;;;13.13;8.70;;;;;;;;;;5038703;28;20210;-62
2023/07/03 06:04:33;;;;;;;13.93;8.40;;;;;;;;;;5021991;28;20704;-64
2023/07/03 06:07:00;;;;;;;13.85;8.45;;;;;;;;;;5041837;28;20261;-63
2023/07/03 06:09:28;;;;;;;16.02;8.43;;;;;;;;;;5036689;28;20198;-63
2023/07/03 06:11:56;;;;;;;13.43;8.75;;;;;;;;;;5025883;28;20208;-64
2023/07/03 06:14:24;;;;;;;15.32;8.82;;;;;;;;;;5041787;28;20233;-63
2023/07/03 06:16:51;;;;;;;13.50;8.18;;;;;;;;;;5040500;28;20660;-63
2023/07/03 06:19:21;;;;;;;11.77;8.00;;;;;;;;;;5039433;28;20210;-62
2023/07/03 06:21:48;;;;;;;16.48;7.82;;;;;;;;;;5044063;28;20202;-64
2023/07/03 06:24:16;;;;;;;13.23;8.35;;;;;;;;;;5038731;28;20244;-63
2023/07/03 06:26:44;;;;;;;13.40;7.85;;;;;;;;;;5036849;28;20206;-63
2023/07/03 06:29:14;;;;;;;13.57;7.70;;;;;;;;;;5039630;28;20285;-62
2023/07/03 06:31:41;;;;;;;13.52;7.93;;;;;;;;;;5018881;28;20203;-63
2023/07/03 06:34:09;;;;;;;15.15;7.80;;;;;;;;;;5017745;28;20283;-63
2023/07/03 06:36:36;;;;;;;15.05;8.07;;;;;;;;;;5024104;28;20198;-62
2023/07/03 06:39:04;;;;;;;14.73;8.45;;;;;;;;;;5023819;28;20268;-64
2023/07/03 06:41:33;;;;;;;12.95;7.65;;;;;;;;;;5030103;28;20202;-64
2023/07/03 06:44:01;;;;;;;13.38;7.72;;;;;;;;;;5023077;28;20241;-64
2023/07/03 06:46:28;;;;;;;11.07;7.22;;;;;;;;;;5020672;28;20198;-63
2023/07/03 06:48:56;;;;;;;13.40;7.95;;;;;;;;;;5017876;28;20218;-64
2023/07/03 06:51:24;;;;;;;16.25;7.28;;;;;;;;;;5041583;28;20214;-64
2023/07/03 06:53:51;;;;;;;14.07;7.47;;;;;;;;;;5040845;28;20218;-63
2023/07/03 06:56:19;;;;;;;10.57;7.28;;;;;;;;;;5027517;28;20265;-63
2023/07/03 06:58:50;;;;;;;11.70;7.53;;;;;;;;;;5039134;28;20214;-63
2023/07/03 07:01:19;;;;;;;11.27;7.20;;;;;;;;;;5022600;28;20680;-63
2023/07/03 07:03:47;;;;;;;13.52;7.38;;;;;;;;;;5018873;28;20249;-63
2023/07/03 07:06:16;;;;;;;12.75;7.47;;;;;;;;;;5023764;28;20300;-63
2023/07/03 07:08:44;;;;;;;14.25;7.53;;;;;;;;;;5030118;28;20321;-63
2023/07/03 07:11:32;;;;;;;12.27;7.30;;;;;;;;;;5042520;28;20202;-64
2023/07/03 07:14:02;;;;;;;12.43;7.03;;;;;;;;;;5035269;28;20261;-63
2023/07/03 07:16:31;;;;;;;10.98;7.07;;;;;;;;;;5018409;28;20217;-63
2023/07/03 07:19:00;;;;;;;13.98;8.15;;;;;;;;;;5038104;28;20242;-63
2023/07/03 07:21:29;;;;;;;14.98;7.65;;;;;;;;;;5037804;28;20229;-63
2023/07/03 07:23:57;;;;;;;11.90;7.25;;;;;;;;;;5023139;28;20681;-63
2023/07/03 07:26:27;;;;;;;11.65;6.38;;;;;;;;;;5044660;28;20222;-62
2023/07/03 07:28:55;;;;;;;11.48;6.68;;;;;;;;;;5036162;28;20227;-64
2023/07/03 07:31:24;;;;;;;14.20;7.22;;;;;;;;;;5039623;28;20205;-65
2023/07/03 07:33:52;;;;;;;10.88;6.40;;;;;;;;;;5037240;28;20659;-64
2023/07/03 07:36:20;;;;;;;15.43;7.00;;;;;;;;;;5023317;28;20643;-63
2023/07/03 07:38:51;;;;;;;14.52;6.72;;;;;;;;;;5035451;28;20202;-63
2023/07/03 07:41:22;;;;;;;12.85;6.15;;;;;;;;;;5034775;28;20687;-64
2023/07/03 07:43:50;;;;;;;11.70;5.88;;;;;;;;;;5021072;28;20222;-62
2023/07/03 07:46:18;;;;;;;14.98;6.22;;;;;;;;;;5039566;28;20206;-62
2023/07/03 07:48:47;;;;;;;12.23;6.07;;;;;;;;;;5037707;28;20697;-62
2023/07/03 07:51:14;;;;;;;13.80;6.15;;;;;;;;;;5040056;28;20229;-63
2023/07/03 07:53:41;;;;;;;13.77;6.60;;;;;;;;;;5010626;28;20207;-63
2023/07/03 07:56:10;;;;;;;10.43;6.28;;;;;;;;;;5019484;28;20203;-63
2023/07/03 07:58:37;;;;;;;12.35;6.05;;;;;;;;;;5031061;28;20210;-63
2023/07/03 08:01:05;;;;;;;13.77;6.35;;;;;;;;;;5034296;28;20734;-63
2023/07/03 08:03:32;;;;;;;12.73;5.97;;;;;;;;;;5036394;28;20755;-62
2023/07/03 08:06:02;;;;;;;13.30;5.70;;;;;;;;;;5036006;28;20206;-61
2023/07/03 08:08:30;;;;;;;13.40;5.97;;;;;;;;;;5041870;28;20226;-62
2023/07/03 08:10:59;;;;;;;22.50;8.70;;;;;;;;;;5038456;28;20194;-61
2023/07/03 08:13:27;;;;;;;12.43;5.72;;;;;;;;;;5042068;28;20211;-62
2023/07/03 08:15:54;;;;;;;12.15;6.00;;;;;;;;;;5030297;28;20218;-62
2023/07/03 08:18:22;;;;;;;13.23;6.30;;;;;;;;;;5037717;28;20217;-61
2023/07/03 08:20:50;;;;;;;10.95;6.10;;;;;;;;;;5043118;28;20206;-60
2023/07/03 08:23:17;;;;;;;10.27;5.72;;;;;;;;;;5047990;28;20255;-61
2023/07/03 08:25:49;;;;;;;11.65;5.35;;;;;;;;;;5044821;28;20234;-61
2023/07/03 08:28:17;;;;;;;15.98;5.57;;;;;;;;;;5045603;28;20821;-62
2023/07/03 08:30:44;;;;;;;10.52;5.60;;;;;;;;;;5043179;28;20206;-62
2023/07/03 08:33:12;;;;;;;9.88;5.57;;;;;;;;;;5030364;28;21153;-62
2023/07/03 08:35:40;;;;;;;11.13;6.07;;;;;;;;;;5043236;28;20226;-62
2023/07/03 08:38:10;;;;;;;12.23;5.93;;;;;;;;;;5046048;28;20206;-62
2023/07/03 08:40:37;;;;;;;16.23;6.57;;;;;;;;;;5042326;28;20206;-62
2023/07/03 08:43:06;;;;;;;15.50;7.18;;;;;;;;;;5035003;28;20215;-63
2023/07/03 08:45:45;;;;;;;11.63;6.05;;;;;;;;;;5023246;28;20230;-63
2023/07/03 08:48:23;;;;;;;13.10;7.30;;;;;;;;;;5035874;28;20309;-63
2023/07/03 08:50:58;;;;;;;16.38;6.68;;;;;;;;;;5025328;28;20324;-63
2023/07/03 08:53:29;;;;;;;9.18;5.82;;;;;;;;;;5040476;28;20733;-63
2023/07/03 08:56:00;;;;;;;15.43;7.07;;;;;;;;;;5045861;28;20575;-63
2023/07/03 08:58:27;;;;;;;10.82;6.40;;;;;;;;;;5047733;28;20225;-62
2023/07/03 09:01:13;;;;;;;14.55;8.43;;;;;;;;;;5044724;28;20206;-62
2023/07/03 09:03:53;;;;;;;15.75;7.78;;;;;;;;;;5023572;28;20665;-63
2023/07/03 09:06:26;;;;;;;11.75;7.20;;;;;;;;;;5043876;28;20559;-62
2023/07/03 09:09:03;;;;;;;13.63;6.90;;;;;;;;;;5043942;28;20653;-65
2023/07/03 09:11:33;;;;;;;12.15;6.75;;;;;;;;;;5023872;28;20322;-63
2023/07/03 09:14:02;;;;;;;14.15;7.47;;;;;;;;;;5033989;28;20225;-63
2023/07/03 09:16:30;;;;;;;11.73;6.63;;;;;;;;;;5045803;28;20233;-63
2023/07/03 09:19:04;;;;;;;11.25;6.53;;;;;;;;;;5041583;28;20547;-62
2023/07/03 09:21:33;;;;;;;14.73;6.60;;;;;;;;;;5043707;28;20206;-63
2023/07/03 09:24:06;;;;;;;13.73;6.75;;;;;;;;;;5038837;28;20284;-64
2023/07/03 09:26:39;;;;;;;13.63;6.50;;;;;;;;;;5040409;28;20263;-62
2023/07/03 09:29:06;;;;;;;11.95;6.22;;;;;;;;;;5032863;28;20280;-62
2023/07/03 09:31:34;;;;;;;12.73;5.90;;;;;;;;;;5032555;28;20490;-64
2023/07/03 09:34:01;;;;;;;11.02;6.13;;;;;;;;;;5046263;28;20677;-63
2023/07/03 09:36:35;;;;;;;13.68;6.22;;;;;;;;;;5043856;28;20203;-62
2023/07/03 09:39:09;;;;;;;16.85;6.60;;;;;;;;;;5050137;28;20218;-62
2023/07/03 09:41:38;;;;;;;10.38;6.28;;;;;;;;;;5041352;28;20293;-62
2023/07/03 09:44:12;;;;;;;9.98;5.93;;;;;;;;;;5040238;28;20231;-62
2023/07/03 09:46:40;;;;;;;11.65;6.25;;;;;;;;;;5042379;28;20372;-62
2023/07/03 09:49:20;;;;;;;13.65;6.10;;;;;;;;;;5035822;28;20699;-62
2023/07/03 09:51:51;;;;;;;12.88;5.95;;;;;;;;;;5037801;28;20210;-63
2023/07/03 09:54:23;;;;;;;18.17;6.85;;;;;;;;;;5046084;28;20226;-63
2023/07/03 09:56:50;;;;;;;10.15;5.80;;;;;;;;;;5029932;28;20198;-63
2023/07/03 09:59:20;;;;;;;10.73;5.80;;;;;;;;;;5044657;28;20201;-63
2023/07/03 10:01:48;;;;;;;10.98;6.50;;;;;;;;;;5050214;28;20210;-62
2023/07/03 10:04:18;;;;;;;14.50;7.10;;;;;;;;;;5042343;28;20716;-62
2023/07/03 10:07:07;;;;;;;21.02;9.25;;;;;;;;;;5038993;28;20570;-62
2023/07/03 10:09:36;;;;;;;16.15;5.70;;;;;;;;;;5038975;28;20245;-63
2023/07/03 10:12:11;;;;;;;10.05;6.45;;;;;;;;;;5036688;28;20747;-62
2023/07/03 10:14:39;;;;;;;13.73;5.55;;;;;;;;;;5043291;28;20299;-63
2023/07/03 10:17:12;;;;;;;11.48;6.00;;;;;;;;;;5044598;28;20222;-62
2023/07/03 10:19:49;;;;;;;12.32;6.35;;;;;;;;;;5039344;28;20202;-63
2023/07/03 10:22:18;;;;;;;12.48;5.95;;;;;;;;;;5040691;28;20484;-63
2023/07/03 10:24:46;;;;;;;10.32;5.93;;;;;;;;;;5036352;28;20230;-62
2023/07/03 10:27:17;;;;;;;8.88;5.20;;;;;;;;;;5027579;28;20339;-62
2023/07/03 10:29:46;;;;;;;10.70;5.82;;;;;;;;;;5043934;28;20660;-63
2023/07/03 10:32:17;;;;;;;13.35;5.88;;;;;;;;;;5042302;28;20252;-61
2023/07/03 10:34:57;;;;;;;12.32;6.45;;;;;;;;;;5047812;28;20746;-62
2023/07/03 10:37:26;;;;;;;10.88;5.65;;;;;;;;;;5027302;28;20206;-62
2023/07/03 10:39:57;;;;;;;11.90;6.40;;;;;;;;;;5026759;28;20260;-62
2023/07/03 10:42:37;;;;;;;15.15;7.55;;;;;;;;;;5028594;28;20661;-61
2023/07/03 10:45:11;;;;;;;11.25;6.30;;;;;;;;;;5023236;28;20616;-62
2023/07/03 10:47:53;;;;;;;14.02;6.18;;;;;;;;;;5029974;28;20263;-62
2023/07/03 10:50:26;;;;;;;10.52;6.07;;;;;;;;;;5027103;28;20221;-62
2023/07/03 10:53:01;;;;;;;11.75;5.80;;;;;;;;;;5028854;28;20639;-65
2023/07/03 10:55:34;;;;;;;8.52;5.03;;;;;;;;;;5024872;28;20218;-62
2023/07/03 10:58:06;;;;;;;9.07;5.45;;;;;;;;;;5017131;28;20433;-64
2023/07/03 11:00:52;;;;;;;8.15;5.63;;;;;;;;;;5019838;28;20214;-62
2023/07/03 11:03:38;;;;;;;9.82;5.85;;;;;;;;;;5041355;28;20210;-68
2023/07/03 11:06:16;;;;;;;10.35;5.65;;;;;;;;;;5042505;28;20210;-61
2023/07/03 11:08:48;;;;;;;10.25;5.93;;;;;;;;;;5038660;28;20219;-61
2023/07/03 11:11:25;;;;;;;9.27;5.57;;;;;;;;;;5010128;28;20210;-62
2023/07/03 11:14:00;;;;;;;11.27;5.55;;;;;;;;;;5037279;28;20237;-64
2023/07/03 11:16:31;;;;;;;9.02;5.75;;;;;;;;;;5038694;28;20197;-66
2023/07/03 11:19:17;;;;;;;11.02;5.80;;;;;;;;;;5014913;28;20213;-69
2023/07/03 11:22:06;;;;;;;8.30;5.15;;;;;;;;;;5041024;28;20217;-68
2023/07/03 11:25:00;;;;;;;11.65;5.53;;;;;;;;;;5034100;28;21406;-62
2023/07/03 11:27:33;;;;;;;11.18;6.10;;;;;;;;;;5010136;28;20710;-68
2023/07/03 11:30:04;;;;;;;9.48;5.38;;;;;;;;;;5032290;28;20700;-62
2023/07/03 11:32:35;;;;;;;10.18;5.72;;;;;;;;;;5037099;28;20427;-62
2023/07/03 11:35:03;;;;;;;16.17;7.32;;;;;;;;;;5020006;28;20725;-61
2023/07/03 11:37:39;;;;;;;14.10;6.00;;;;;;;;;;5027874;28;20206;-65
2023/07/03 11:40:39;;;;;;;9.40;5.45;;;;;;;;;;5043851;28;20247;-62
2023/07/03 11:43:09;;;;;;;11.27;5.13;;;;;;;;;;5019252;28;20210;-68
2023/07/03 11:45:40;;;;;;;9.80;5.00;;;;;;;;;;5038045;28;20230;-62
2023/07/03 11:48:40;;;;;;;9.63;5.63;;;;;;;;;;5028291;28;20291;-61
2023/07/03 11:51:11;;;;;;;11.27;5.47;;;;;;;;;;5012953;28;20198;-62
2023/07/03 11:54:08;;;;;;;10.95;5.97;;;;;;;;;;5037978;28;20195;-66
2023/07/03 11:56:35;;;;;;;14.95;6.10;;;;;;;;;;5027963;28;20244;-63
2023/07/03 11:59:08;;;;;;;9.18;5.13;;;;;;;;;;5046810;28;20210;-64
2023/07/03 12:01:36;;;;;;;11.05;5.75;;;;;;;;;;5039741;28;20213;-68
2023/07/03 12:04:10;;;;;;;10.65;5.38;;;;;;;;;;5031626;28;20254;-61
2023/07/03 12:06:40;;;;;;;10.13;5.15;;;;;;;;;;5045450;28;20206;-64
2023/07/03 12:09:29;;;;;;;9.88;5.38;;;;;;;;;;5025162;28;20684;-66
2023/07/03 12:11:59;;;;;;;9.73;4.72;;;;;;;;;;5030281;28;20224;-64
2023/07/03 12:14:44;;;;;;;9.15;4.93;;;;;;;;;;5044495;28;20699;-64
2023/07/03 12:17:23;;;;;;;9.20;5.95;;;;;;;;;;5017901;28;20305;-64
2023/07/03 12:19:55;;;;;;;7.95;5.35;;;;;;;;;;5027877;28;20209;-65
2023/07/03 12:22:25;;;;;;;7.95;4.82;;;;;;;;;;5039069;28;20209;-64
2023/07/03 12:25:02;;;;;;;8.57;4.60;;;;;;;;;;5031911;28;20226;-65
2023/07/03 12:27:29;;;;;;;8.07;4.85;;;;;;;;;;5032442;28;20683;-64
2023/07/03 12:29:57;;;;;;;7.65;4.68;;;;;;;;;;5046258;28;20227;-62
2023/07/03 12:32:32;;;;;;;9.45;4.57;;;;;;;;;;5026589;28;20222;-63
2023/07/03 12:35:11;;;;;;;9.27;4.45;;;;;;;;;;5040918;28;20233;-62
2023/07/03 12:37:42;;;;;;;5.03;3.65;;;;;;;;;;5049478;28;20200;-62
2023/07/03 12:40:14;;;;;;;7.18;4.43;;;;;;;;;;5034695;28;20679;-64
2023/07/03 12:42:42;;;;;;;6.95;4.57;;;;;;;;;;5050150;28;20248;-62
2023/07/03 12:45:12;;;;;;;8.43;4.53;;;;;;;;;;5051524;28;20234;-63
2023/07/03 12:47:40;;;;;;;5.97;3.78;;;;;;;;;;5045696;28;20206;-65
2023/07/03 12:50:12;;;;;;;6.60;3.25;;;;;;;;;;5047874;28;20261;-67
2023/07/03 12:52:40;;;;;;;5.07;3.53;;;;;;;;;;5027937;28;20270;-63
2023/07/03 12:55:07;;;;;;;6.30;4.20;;;;;;;;;;5046223;28;20790;-63
2023/07/03 12:57:41;;;;;;;5.05;3.45;;;;;;;;;;5043451;28;20193;-62
2023/07/03 13:00:14;;;;;;;13.75;4.70;;;;;;;;;;5046943;28;20219;-63
2023/07/03 13:02:42;;;;;;;5.43;3.28;;;;;;;;;;5044031;28;20234;-63
2023/07/03 13:05:12;;;;;;;14.52;8.80;;;;;;;;;;5040206;28;20588;-67
2023/07/03 13:07:42;;;;;;;8.00;4.90;;;;;;;;;;5025520;28;20206;-67
2023/07/03 13:10:11;;;;;;;8.05;4.45;;;;;;;;;;5056606;28;20235;-64
2023/07/03 13:12:39;;;;;;;5.60;3.72;;;;;;;;;;5045150;28;20198;-65
2023/07/03 13:15:10;;;;;;;10.02;4.00;;;;;;;;;;5044076;28;20757;-63
2023/07/03 13:17:39;;;;;;;5.03;3.60;;;;;;;;;;5046566;28;20202;-65
2023/07/03 13:20:26;;;;;;;8.27;3.85;;;;;;;;;;5051237;28;20898;-67
2023/07/03 13:22:58;;;;;;;4.97;3.50;;;;;;;;;;5048372;28;20198;-62
2023/07/03 13:25:33;;;;;;;6.60;3.83;;;;;;;;;;5031825;28;20238;-69
2023/07/03 13:28:05;;;;;;;8.48;4.30;;;;;;;;;;5042166;28;20206;-65
2023/07/03 13:30:34;;;;;;;7.78;3.85;;;;;;;;;;5048220;28;20246;-64
2023/07/03 13:33:04;;;;;;;8.20;4.05;;;;;;;;;;5039718;28;20675;-62
2023/07/03 13:35:34;;;;;;;6.60;3.75;;;;;;;;;;5032164;28;20224;-61
2023/07/03 13:38:09;;;;;;;7.10;4.00;;;;;;;;;;5029261;28;20206;-62
2023/07/03 13:40:36;;;;;;;8.25;5.30;;;;;;;;;;5038010;28;20210;-63
2023/07/03 13:43:04;;;;;;;6.22;3.70;;;;;;;;;;5048098;28;20604;-64
2023/07/03 13:45:32;;;;;;;7.57;4.13;;;;;;;;;;5050013;28;20229;-61
2023/07/03 13:47:59;;;;;;;6.88;3.83;;;;;;;;;;5033039;28;20213;-62
2023/07/03 13:50:28;;;;;;;9.77;5.78;;;;;;;;;;5045407;28;20226;-66
2023/07/03 13:52:56;;;;;;;8.15;3.97;;;;;;;;;;5039516;28;20322;-61
2023/07/03 13:55:24;;;;;;;7.57;5.00;;;;;;;;;;5045719;28;20578;-61
2023/07/03 13:57:51;;;;;;;6.38;4.45;;;;;;;;;;5049627;28;20228;-64
2023/07/03 14:00:19;;;;;;;8.27;4.15;;;;;;;;;;5035197;28;20633;-61
2023/07/03 14:02:46;;;;;;;7.97;3.70;;;;;;;;;;5032315;28;20206;-62
2023/07/03 14:05:16;;;;;;;5.85;3.53;;;;;;;;;;5044569;28;20268;-65
2023/07/03 14:07:43;;;;;;;6.15;3.67;;;;;;;;;;5024565;28;20214;-68
2023/07/03 14:10:10;;;;;;;6.85;3.63;;;;;;;;;;5037001;28;20231;-61
2023/07/03 14:12:39;;;;;;;8.65;4.10;;;;;;;;;;5045085;28;20616;-62
2023/07/03 14:15:27;;;;;;;5.15;3.53;;;;;;;;;;5043775;28;20222;-63
2023/07/03 14:17:54;;;;;;;6.97;4.28;;;;;;;;;;5045660;28;20665;-63
2023/07/03 14:20:22;;;;;;;7.78;3.70;;;;;;;;;;5042587;28;20211;-62
2023/07/03 14:22:50;;;;;;;7.97;3.72;;;;;;;;;;5044999;28;20244;-64
2023/07/03 14:25:17;;;;;;;6.63;3.50;;;;;;;;;;5051047;28;20307;-62
2023/07/03 14:27:45;;;;;;;6.65;3.65;;;;;;;;;;5048969;28;20209;-62
2023/07/03 14:30:12;;;;;;;6.10;3.25;;;;;;;;;;5025615;28;20226;-64
2023/07/03 14:32:40;;;;;;;4.05;3.25;;;;;;;;;;5041136;28;20944;-65
2023/07/03 14:35:22;;;;;;;4.45;3.35;;;;;;;;;;5037952;28;20684;-65
2023/07/03 14:37:49;;;;;;;6.60;3.30;;;;;;;;;;5040543;28;20297;-62
2023/07/03 14:40:16;;;;;;;6.45;3.60;;;;;;;;;;5043589;28;20217;-64
2023/07/03 14:42:44;;;;;;;4.65;3.53;;;;;;;;;;5014723;28;20703;-61
2023/07/03 14:45:12;;;;;;;6.40;3.60;;;;;;;;;;5027957;28;20894;-62